Time;durP1;ratioP1;P1;durP2;ratioP2;P2;SDS_P1;SDS_P2;PMS_P1;PMS_P2;Temp;Humidity;BMP_temperature;BMP_pressure;BME280_temperature;BME280_humidity;BME280_pressure;Samples;Min_cycle;Max_cycle;Signal;HPM_P1;HPM_P2
2023/06/15 00:01:33;;;;;;;;;11.00;9.40;;;;;15.97;88.01;98788.91;6251569;27;96785;-70
2023/06/15 00:04:37;;;;;;;;;13.00;11.00;;;;;15.97;87.21;98792.44;6252742;28;96286;-70
2023/06/15 00:07:40;;;;;;;;;11.60;11.60;;;;;15.83;87.54;98768.66;6254783;28;96802;-70
2023/06/15 00:10:43;;;;;;;;;10.25;10.00;;;;;16.01;88.27;98793.56;6242073;27;96687;-71
2023/06/15 00:13:47;;;;;;;;;13.00;12.00;;;;;16.05;88.88;98788.44;6253133;28;98786;-70
2023/06/15 00:16:52;;;;;;;;;14.00;13.00;;;;;15.78;89.01;98745.00;6251712;27;97367;-70
2023/06/15 00:19:57;;;;;;;;;16.00;15.00;;;;;16.07;89.17;98786.28;6241571;27;96697;-70
2023/06/15 00:23:01;;;;;;;;;12.00;11.20;;;;;16.08;89.46;98793.34;6251286;28;98465;-70
2023/06/15 00:26:04;;;;;;;;;15.00;13.00;;;;;16.09;89.93;98788.72;6255923;27;96489;-71
2023/06/15 00:29:08;;;;;;;;;15.00;15.00;;;;;15.99;90.08;98782.13;6246956;28;97086;-71
2023/06/15 00:32:12;;;;;;;;;12.20;11.80;;;;;16.07;89.66;98796.34;6252131;27;96285;-70
2023/06/15 00:35:16;;;;;;;;;14.00;13.60;;;;;15.98;88.96;98790.53;6250928;27;96222;-70
2023/06/15 00:38:19;;;;;;;;;12.00;12.00;;;;;16.00;88.69;98796.53;6249962;27;97248;-70
2023/06/15 00:41:23;;;;;;;;;12.00;10.00;;;;;15.97;88.48;98800.63;6248583;28;96361;-70
2023/06/15 00:44:27;;;;;;;;;12.60;11.00;;;;;15.97;89.35;98799.78;6254565;27;96304;-71
2023/06/15 00:47:33;;;;;;;;;12.00;11.00;;;;;15.99;89.40;98803.06;6234198;28;96900;-70
2023/06/15 00:50:38;;;;;;;;;10.40;10.00;;;;;15.98;88.99;98794.06;6250417;28;96299;-70
2023/06/15 00:53:44;;;;;;;;;14.60;12.40;;;;;15.94;88.13;98787.50;6233459;28;99027;-70
2023/06/15 00:56:48;;;;;;;;;14.00;12.33;;;;;15.87;88.27;98780.66;6251011;28;96298;-70
2023/06/15 00:59:51;;;;;;;;;14.00;13.00;;;;;15.97;88.75;98797.91;6251832;27;96389;-70
2023/06/15 01:02:57;;;;;;;;;12.80;11.80;;;;;16.04;89.10;98797.66;6233131;28;98890;-70
2023/06/15 01:06:01;;;;;;;;;11.00;10.25;;;;;16.08;90.30;98796.06;6249926;28;96335;-71
2023/06/15 01:09:05;;;;;;;;;13.00;13.00;;;;;16.23;91.80;98792.63;6248883;28;96436;-71
2023/06/15 01:12:12;;;;;;;;;14.75;13.00;;;;;16.34;92.86;98802.53;6235844;27;96776;-70
2023/06/15 01:15:16;;;;;;;;;13.00;12.00;;;;;16.41;93.60;98801.22;6234748;28;96510;-70
2023/06/15 01:18:24;;;;;;;;;14.80;14.80;;;;;16.55;94.62;98792.59;6237452;28;96541;-70
2023/06/15 01:21:30;;;;;;;;;14.00;12.25;;;;;16.63;94.79;98795.69;6219179;28;96639;-70
2023/06/15 01:24:37;;;;;;;;;16.20;16.20;;;;;16.72;94.48;98793.28;6235968;28;96725;-70
2023/06/15 01:27:43;;;;;;;;;16.60;15.00;;;;;16.78;94.09;98794.94;6233400;28;96247;-69
2023/06/15 01:30:49;;;;;;;;;13.20;12.20;;;;;16.78;93.67;98800.38;6234341;28;97046;-70
2023/06/15 01:33:53;;;;;;;;;16.00;15.00;;;;;16.82;93.48;98804.22;6234457;28;96624;-70
2023/06/15 01:36:56;;;;;;;;;15.00;13.00;;;;;16.82;91.80;98806.94;6234752;28;96473;-69
2023/06/15 01:40:00;;;;;;;;;10.20;10.00;;;;;16.65;88.01;98803.59;6215236;28;96593;-70
2023/06/15 01:43:07;;;;;;;;;12.80;12.00;;;;;16.35;87.31;98772.34;6234850;28;96697;-70
2023/06/15 01:46:10;;;;;;;;;12.00;11.60;;;;;16.34;86.62;98806.06;6219401;28;96723;-70
2023/06/15 01:49:14;;;;;;;;;13.20;12.80;;;;;16.26;86.82;98806.56;6235659;28;96300;-70
2023/06/15 01:52:18;;;;;;;;;14.75;14.00;;;;;16.22;87.27;98810.06;6234739;28;96522;-70
2023/06/15 01:55:21;;;;;;;;;13.40;13.40;;;;;16.19;88.14;98810.56;6233595;28;98448;-70
2023/06/15 01:58:26;;;;;;;;;15.80;15.00;;;;;16.20;88.09;98807.59;6218699;28;97174;-69
2023/06/15 02:01:30;;;;;;;;;14.25;14.00;;;;;16.22;89.28;98804.63;6236311;27;96808;-70
2023/06/15 02:04:33;;;;;;;;;13.75;13.00;;;;;16.27;91.06;98808.19;6234749;28;96789;-70
2023/06/15 02:07:36;;;;;;;;;19.00;17.00;;;;;16.38;93.06;98812.63;6219028;28;98298;-70
2023/06/15 02:10:41;;;;;;;;;14.60;14.60;;;;;16.46;94.37;98809.44;6218648;28;97341;-70
2023/06/15 02:13:46;;;;;;;;;18.00;15.80;;;;;16.48;95.44;98793.66;6238350;28;96921;-70
2023/06/15 02:16:50;;;;;;;;;17.75;16.00;;;;;16.60;96.16;98811.72;6239203;27;96891;-70
2023/06/15 02:19:53;;;;;;;;;18.00;16.00;;;;;16.65;96.21;98807.13;6238454;28;97431;-70
2023/06/15 02:22:59;;;;;;;;;15.40;14.40;;;;;16.60;94.81;98801.66;6219686;28;96290;-70
2023/06/15 02:26:02;;;;;;;;;18.00;16.00;;;;;16.56;94.61;98799.69;6241102;27;96608;-69
2023/06/15 02:29:08;;;;;;;;;14.00;14.00;;;;;16.65;93.75;98804.41;6222837;28;98513;-70
2023/06/15 02:32:30;;;;;;;;;15.20;14.80;;;;;16.68;93.64;98800.34;6248310;27;97067;-69
2023/06/15 02:35:34;;;;;;;;;16.00;15.00;;;;;16.63;94.14;98787.50;6199090;28;98943;-70
2023/06/15 02:38:38;;;;;;;;;18.50;17.00;;;;;16.64;94.78;98799.22;6239075;28;96347;-69
2023/06/15 02:41:41;;;;;;;;;21.00;19.00;;;;;16.66;94.74;98806.06;6218731;28;96697;-70
2023/06/15 02:44:46;;;;;;;;;18.00;16.00;;;;;16.73;94.87;98808.53;6237297;28;96376;-71
2023/06/15 02:47:49;;;;;;;;;20.00;19.00;;;;;16.67;94.98;98796.78;6222608;28;96714;-69
2023/06/15 02:50:53;;;;;;;;;19.00;17.00;;;;;16.72;95.03;98801.44;6222630;28;96999;-71
2023/06/15 02:53:58;;;;;;;;;19.00;18.60;;;;;16.70;95.31;98806.34;6238911;28;96222;-70
2023/06/15 02:57:02;;;;;;;;;22.60;20.60;;;;;16.74;95.04;98799.28;6221578;28;96716;-69
2023/06/15 03:00:13;;;;;;;;;18.50;18.00;;;;;16.76;95.65;98808.81;6237368;28;96485;-71
2023/06/15 03:03:27;;;;;;;;;22.60;20.40;;;;;16.81;96.02;98806.13;6219879;28;96803;-68
2023/06/15 03:06:34;;;;;;;;;19.75;19.00;;;;;16.78;96.84;98814.81;6221687;28;98677;-69
2023/06/15 03:09:40;;;;;;;;;23.60;22.00;;;;;16.84;96.88;98819.22;6237684;28;96510;-69
2023/06/15 03:12:44;;;;;;;;;17.40;17.40;;;;;16.90;95.82;98809.19;6238646;28;96320;-69
2023/06/15 03:15:49;;;;;;;;;20.80;18.60;;;;;16.87;95.81;98824.13;6237935;27;96904;-70
2023/06/15 03:18:54;;;;;;;;;23.40;20.00;;;;;16.87;95.75;98817.88;6247551;27;96711;-69
2023/06/15 03:22:00;;;;;;;;;23.40;22.00;;;;;16.79;96.10;98824.63;6262811;27;96555;-69
2023/06/15 03:25:04;;;;;;;;;20.80;19.80;;;;;16.75;96.21;98822.72;6242215;27;96849;-70
2023/06/15 03:28:07;;;;;;;;;23.00;21.00;;;;;16.79;95.80;98815.66;6259085;27;96541;-70
2023/06/15 03:31:17;;;;;;;;;22.60;20.40;;;;;16.80;95.73;98818.13;6248776;27;96995;-70
2023/06/15 03:34:22;;;;;;;;;20.20;18.00;;;;;16.77;95.31;98818.63;6217837;28;96880;-70
2023/06/15 03:37:26;;;;;;;;;18.00;17.00;;;;;16.78;95.56;98822.16;6218805;28;98859;-70
2023/06/15 03:40:30;;;;;;;;;24.00;22.00;;;;;16.79;95.73;98819.19;6233983;27;97470;-70
2023/06/15 03:43:33;;;;;;;;;20.00;18.80;;;;;16.89;95.46;98829.31;6235885;28;96496;-69
2023/06/15 03:46:38;;;;;;;;;21.00;17.40;;;;;16.94;95.41;98832.06;6239437;27;96826;-70
2023/06/15 03:49:42;;;;;;;;;21.00;19.00;;;;;16.98;95.48;98833.19;6254876;27;96250;-69
2023/06/15 03:52:45;;;;;;;;;20.67;17.33;;;;;17.08;95.50;98835.13;6235551;27;96618;-69
2023/06/15 03:55:49;;;;;;;;;19.40;18.60;;;;;17.14;95.93;98840.34;6220071;28;98660;-69
2023/06/15 03:58:53;;;;;;;;;22.00;20.00;;;;;17.25;96.02;98836.56;6237414;27;96366;-70
2023/06/15 04:01:58;;;;;;;;;21.20;19.60;;;;;17.36;95.57;98831.97;6235903;28;97535;-69
2023/06/15 04:05:03;;;;;;;;;23.40;20.60;;;;;17.47;94.60;98833.66;6237751;28;96981;-70
2023/06/15 04:08:08;;;;;;;;;22.40;20.00;;;;;17.56;93.82;98834.78;6219755;28;98361;-70
2023/06/15 04:11:11;;;;;;;;;19.67;18.00;;;;;17.65;92.99;98832.38;6236348;27;96334;-70
2023/06/15 04:14:15;;;;;;;;;22.00;20.00;;;;;17.72;92.49;98833.78;6242985;27;96888;-69
2023/06/15 04:17:20;;;;;;;;;21.00;18.00;;;;;17.78;92.26;98831.88;6218966;28;96412;-70
2023/06/15 04:20:23;;;;;;;;;20.50;18.50;;;;;17.87;92.62;98834.91;6233519;27;96792;-69
2023/06/15 04:23:29;;;;;;;;;20.00;18.00;;;;;17.98;92.12;98834.66;6214696;28;97190;-70
2023/06/15 04:26:32;;;;;;;;;23.00;20.00;;;;;18.10;91.30;98835.19;6236507;28;96123;-69
2023/06/15 04:29:36;;;;;;;;;25.00;22.00;;;;;18.12;90.39;98827.56;6214072;27;96622;-69
2023/06/15 04:32:41;;;;;;;;;19.00;17.00;;;;;18.17;90.66;98830.28;6236710;27;96570;-69
2023/06/15 04:35:46;;;;;;;;;21.00;19.00;;;;;18.28;90.35;98833.00;6239676;27;96802;-70
2023/06/15 04:38:51;;;;;;;;;19.00;17.50;;;;;18.33;89.36;98838.47;6236783;28;96764;-70
2023/06/15 04:41:57;;;;;;;;;21.40;19.00;;;;;18.35;89.96;98834.38;6236240;28;97158;-70
2023/06/15 04:45:02;;;;;;;;;21.80;18.00;;;;;18.37;89.64;98831.38;6253490;27;96532;-70
2023/06/15 04:48:07;;;;;;;;;19.00;17.00;;;;;18.34;89.33;98831.91;6232283;27;96974;-70
2023/06/15 04:51:11;;;;;;;;;22.60;19.00;;;;;18.43;89.11;98843.91;6232576;27;96938;-69
2023/06/15 04:54:16;;;;;;;;;23.00;20.00;;;;;18.44;88.95;98845.56;6211290;28;97192;-70
2023/06/15 04:57:19;;;;;;;;;19.00;16.33;;;;;18.46;89.47;98843.38;6235162;28;98427;-69
2023/06/15 05:00:23;;;;;;;;;18.00;16.00;;;;;18.47;88.99;98845.81;6233291;28;96407;-70
2023/06/15 05:03:34;;;;;;;;;20.00;17.20;;;;;18.52;89.59;98843.09;6237246;27;96830;-70
2023/06/15 05:06:38;;;;;;;;;22.40;19.60;;;;;18.48;88.98;98841.19;6229511;27;96980;-69
2023/06/15 05:09:43;;;;;;;;;23.20;19.80;;;;;18.55;88.83;98850.78;6209753;28;98765;-69
2023/06/15 05:12:51;;;;;;;;;17.00;16.00;;;;;18.56;89.30;98851.63;6214521;28;96889;-69
2023/06/15 05:15:55;;;;;;;;;18.80;16.80;;;;;18.63;88.87;98854.88;6229437;27;97858;-70
2023/06/15 05:19:02;;;;;;;;;19.00;17.20;;;;;18.80;87.37;98860.88;6216130;28;98814;-69
2023/06/15 05:22:06;;;;;;;;;20.00;18.00;;;;;18.83;86.86;98863.03;6234705;27;97100;-69
2023/06/15 05:25:13;;;;;;;;;19.00;17.00;;;;;18.97;86.19;98858.63;6234566;27;96659;-69
2023/06/15 05:28:20;;;;;;;;;20.50;18.00;;;;;19.03;85.81;98862.19;6230123;28;96077;-71
2023/06/15 05:31:24;;;;;;;;;20.60;18.00;;;;;19.06;84.24;98869.00;6231625;28;98390;-68
2023/06/15 05:34:30;;;;;;;;;19.00;19.00;;;;;19.05;84.33;98865.47;6213679;28;96579;-72
2023/06/15 05:37:34;;;;;;;;;22.25;21.00;;;;;19.07;84.38;98852.31;6233103;28;96439;-72
2023/06/15 05:40:39;;;;;;;;;20.00;17.75;;;;;19.27;84.22;98867.84;6222818;27;96656;-71
2023/06/15 05:43:42;;;;;;;;;18.00;17.00;;;;;19.41;84.30;98866.13;6249502;27;96245;-71
2023/06/15 05:46:46;;;;;;;;;18.00;17.00;;;;;19.54;82.70;98872.97;6217707;28;96556;-71
2023/06/15 05:49:52;;;;;;;;;20.60;18.60;;;;;19.74;82.16;98879.16;6235856;28;96293;-71
2023/06/15 05:52:57;;;;;;;;;18.00;17.00;;;;;20.06;80.31;98875.16;6218881;28;97271;-71
2023/06/15 05:56:00;;;;;;;;;20.00;17.00;;;;;20.38;78.00;98878.22;6234901;28;96692;-71
2023/06/15 05:59:05;;;;;;;;;20.00;17.25;;;;;20.56;75.98;98872.06;6217670;28;96797;-71
2023/06/15 06:02:23;;;;;;;;;23.25;21.00;;;;;20.82;75.28;98871.84;6234286;28;96748;-71
2023/06/15 06:05:31;;;;;;;;;22.40;20.40;;;;;20.91;73.90;98875.59;6232824;28;96635;-71
2023/06/15 06:08:35;;;;;;;;;21.25;18.00;;;;;21.12;72.92;98880.56;6234357;28;96348;-71
2023/06/15 06:11:38;;;;;;;;;22.00;20.00;;;;;21.31;71.69;98872.41;6233968;28;96691;-71
2023/06/15 06:14:42;;;;;;;;;20.00;19.00;;;;;21.61;71.18;98877.53;6234165;28;97122;-70
2023/06/15 06:17:45;;;;;;;;;24.00;21.00;;;;;21.83;68.59;98884.41;6239951;27;96377;-70
2023/06/15 06:21:11;;;;;;;;;20.40;19.40;;;;;21.89;67.36;98878.53;6236639;27;96916;-70
2023/06/15 06:24:14;;;;;;;;;24.00;19.50;;;;;21.87;66.38;98885.44;6218706;28;98403;-70
2023/06/15 06:27:20;;;;;;;;;23.00;20.33;;;;;21.94;66.28;98885.94;6225957;27;98542;-70
2023/06/15 06:30:24;;;;;;;;;20.00;19.40;;;;;22.10;65.98;98889.25;6235497;27;96291;-70
2023/06/15 06:33:27;;;;;;;;;20.40;20.20;;;;;22.15;64.30;98884.50;6232913;28;96448;-70
2023/06/15 06:36:32;;;;;;;;;21.20;19.80;;;;;22.04;64.11;98888.50;6235784;27;96471;-70
2023/06/15 06:39:41;;;;;;;;;22.25;19.00;;;;;22.19;64.69;98884.72;6227746;28;98559;-70
2023/06/15 06:42:46;;;;;;;;;25.00;22.00;;;;;22.44;63.27;98884.34;6235890;27;96437;-70
2023/06/15 06:45:50;;;;;;;;;23.00;22.20;;;;;22.41;63.58;98876.72;6233723;28;98396;-70
2023/06/15 06:48:54;;;;;;;;;25.00;22.00;;;;;22.39;62.31;98885.25;6234104;28;96826;-70
2023/06/15 06:51:58;;;;;;;;;20.25;20.00;;;;;22.28;62.06;98891.22;6233823;28;96545;-70
2023/06/15 06:55:03;;;;;;;;;22.00;19.60;;;;;22.52;61.81;98891.09;6234629;28;96267;-70
2023/06/15 06:58:06;;;;;;;;;21.80;18.20;;;;;22.56;59.59;98889.38;6254495;27;97709;-70
2023/06/15 07:01:10;;;;;;;;;21.60;20.60;;;;;22.30;60.77;98886.22;6260760;27;96387;-70
2023/06/15 07:04:13;;;;;;;;;21.00;19.50;;;;;22.39;62.60;98889.91;6239643;27;96741;-70
2023/06/15 07:07:18;;;;;;;;;23.20;21.20;;;;;22.48;62.41;98880.69;6224637;27;97883;-70
2023/06/15 07:10:21;;;;;;;;;20.60;19.00;;;;;22.59;61.11;98884.09;6263651;27;96273;-70
2023/06/15 07:13:25;;;;;;;;;21.60;19.00;;;;;22.57;59.56;98882.78;6248993;27;96253;-70
2023/06/15 07:16:28;;;;;;;;;21.80;19.00;;;;;22.55;60.23;98885.00;6259455;27;96296;-70
2023/06/15 07:19:31;;;;;;;;;19.80;19.00;;;;;22.62;59.77;98856.03;6249717;27;96517;-70
2023/06/15 07:22:36;;;;;;;;;25.00;21.50;;;;;22.92;59.55;98884.13;6246272;27;96846;-70
2023/06/15 07:25:40;;;;;;;;;22.00;20.40;;;;;22.96;58.88;98882.41;6238962;27;96400;-70
2023/06/15 07:28:43;;;;;;;;;21.00;19.00;;;;;23.06;59.32;98880.28;6237414;28;96255;-69
2023/06/15 07:31:46;;;;;;;;;21.60;18.60;;;;;23.16;59.00;98876.53;6251543;27;96240;-70
2023/06/15 07:34:52;;;;;;;;;23.75;19.00;;;;;23.30;58.81;98860.84;6219827;28;96701;-69
2023/06/15 07:37:57;;;;;;;;;18.60;17.00;;;;;23.53;57.39;98881.06;6255565;27;98534;-72
2023/06/15 07:41:00;;;;;;;;;18.00;17.00;;;;;23.72;55.21;98882.56;6262709;27;97169;-69
2023/06/15 07:44:04;;;;;;;;;18.60;15.80;;;;;24.17;54.65;98877.19;6249899;27;96239;-70
2023/06/15 07:47:09;;;;;;;;;17.25;17.00;;;;;24.60;50.72;98875.59;6237563;28;98397;-70
2023/06/15 07:50:12;;;;;;;;;15.60;14.20;;;;;24.77;51.75;98887.88;6237996;28;96805;-70
2023/06/15 07:53:17;;;;;;;;;14.40;12.40;;;;;24.96;49.66;98874.72;6237749;28;96249;-70
2023/06/15 07:56:20;;;;;;;;;15.00;14.00;;;;;25.13;49.04;98880.31;6220943;28;96661;-70
2023/06/15 07:59:24;;;;;;;;;15.40;15.00;;;;;25.11;47.50;98876.25;6248310;27;96421;-70
2023/06/15 08:02:27;;;;;;;;;15.00;14.60;;;;;25.21;46.48;98881.50;6263220;27;98906;-70
2023/06/15 08:05:31;;;;;;;;;13.75;12.75;;;;;25.52;46.73;98882.25;6242323;27;96416;-70
2023/06/15 08:08:36;;;;;;;;;14.80;14.80;;;;;25.56;45.01;98882.50;6212768;28;98909;-71
2023/06/15 08:11:40;;;;;;;;;15.20;13.00;;;;;25.86;45.13;98879.63;6212786;28;96411;-70
2023/06/15 08:14:43;;;;;;;;;15.60;14.60;;;;;25.77;46.31;98855.88;6248618;27;96968;-71
2023/06/15 08:17:47;;;;;;;;;14.25;14.00;;;;;25.85;45.87;98874.44;6238100;28;96485;-70
2023/06/15 08:20:50;;;;;;;;;16.80;14.40;;;;;25.75;45.48;98886.59;6237873;28;96541;-70
2023/06/15 08:23:55;;;;;;;;;13.40;12.00;;;;;25.52;45.66;98889.72;6220659;28;96647;-71
2023/06/15 08:27:00;;;;;;;;;16.00;14.80;;;;;25.15;47.02;98871.72;6237271;28;97236;-71
2023/06/15 08:30:04;;;;;;;;;18.75;16.00;;;;;25.26;47.66;98895.16;6236989;28;96720;-72
2023/06/15 08:33:08;;;;;;;;;16.40;15.00;;;;;25.55;46.85;98900.19;6246373;27;96080;-71
2023/06/15 08:36:11;;;;;;;;;15.40;14.40;;;;;25.85;45.00;98894.56;6236889;27;98248;-71
2023/06/15 08:39:16;;;;;;;;;14.20;12.00;;;;;25.97;44.52;98899.47;6236240;28;96286;-71
2023/06/15 08:42:23;;;;;;;;;14.00;13.00;;;;;26.09;43.53;98887.81;6256343;27;96396;-71
2023/06/15 08:45:33;;;;;;;;;17.00;15.40;;;;;26.11;43.87;98902.09;6228097;27;98381;-71
2023/06/15 08:48:38;;;;;;;;;12.75;11.75;;;;;25.75;43.53;98894.06;6236912;27;97130;-71
2023/06/15 08:51:44;;;;;;;;;13.80;12.00;;;;;25.27;43.76;98894.81;6235446;28;96653;-71
2023/06/15 08:54:53;;;;;;;;;14.00;11.00;;;;;25.22;44.52;98891.38;6236470;27;96269;-71
2023/06/15 08:57:57;;;;;;;;;14.00;12.00;;;;;25.58;44.10;98896.75;6247140;27;96815;-73
2023/06/15 09:01:00;;;;;;;;;13.20;12.00;;;;;25.92;43.37;98890.53;6242630;27;97305;-72
2023/06/15 09:04:04;;;;;;;;;12.50;10.50;;;;;26.12;41.75;98890.72;6254529;27;96408;-72
2023/06/15 09:07:08;;;;;;;;;10.67;10.67;;;;;26.48;40.25;98887.69;6237378;28;96355;-71
2023/06/15 09:10:14;;;;;;;;;11.60;10.00;;;;;26.85;39.79;98882.56;6234560;28;98376;-71
2023/06/15 09:13:18;;;;;;;;;10.80;8.20;;;;;27.28;38.08;98886.06;6235489;28;97058;-71
2023/06/15 09:16:23;;;;;;;;;10.60;9.60;;;;;27.51;36.83;98879.13;6234136;27;96384;-72
2023/06/15 09:19:26;;;;;;;;;10.40;10.40;;;;;27.68;36.95;98882.97;6237178;27;97038;-72
2023/06/15 09:22:30;;;;;;;;;9.20;9.00;;;;;27.77;39.33;98878.19;6236464;27;96413;-73
2023/06/15 09:25:36;;;;;;;;;9.60;8.00;;;;;28.33;39.77;98886.00;6236307;27;97104;-73
2023/06/15 09:28:45;;;;;;;;;8.60;7.00;;;;;28.64;37.00;98881.94;6237021;27;96418;-73
2023/06/15 09:31:49;;;;;;;;;10.00;8.60;;;;;28.69;36.10;98887.28;6235944;27;96290;-72
2023/06/15 09:34:59;;;;;;;;;10.60;9.00;;;;;28.78;33.41;98880.53;6235740;27;97529;-72
2023/06/15 09:38:03;;;;;;;;;11.20;9.60;;;;;29.09;36.00;98882.84;6217965;28;96793;-72
2023/06/15 09:41:09;;;;;;;;;9.00;8.00;;;;;29.28;32.83;98860.88;6235781;27;96312;-72
2023/06/15 09:44:14;;;;;;;;;9.00;9.00;;;;;29.37;32.18;98866.34;6234902;28;96629;-72
2023/06/15 09:47:18;;;;;;;;;9.00;8.40;;;;;29.08;32.30;98869.28;6235153;28;96391;-72
2023/06/15 09:50:28;;;;;;;;;10.60;7.60;;;;;28.95;32.77;98873.19;6235755;27;98376;-72
2023/06/15 09:53:31;;;;;;;;;6.00;6.00;;;;;29.17;32.83;98870.84;6236214;28;96303;-72
2023/06/15 09:56:39;;;;;;;;;9.25;8.25;;;;;28.87;32.34;98869.38;6236421;27;97864;-72
2023/06/15 09:59:42;;;;;;;;;11.40;10.00;;;;;28.66;34.23;98869.38;6237182;27;96378;-72
2023/06/15 10:02:47;;;;;;;;;9.00;9.00;;;;;28.54;34.71;98869.31;6218900;28;96827;-72
2023/06/15 10:05:55;;;;;;;;;11.80;10.80;;;;;28.57;35.07;98862.28;6237280;28;96506;-71
2023/06/15 10:09:01;;;;;;;;;11.50;10.00;;;;;28.59;34.51;98860.00;6230898;28;96958;-73
2023/06/15 10:12:12;;;;;;;;;10.00;9.50;;;;;28.99;34.85;98863.84;6235502;28;96492;-73
2023/06/15 10:15:18;;;;;;;;;9.00;8.00;;;;;29.18;34.40;98847.44;6235770;28;96845;-73
2023/06/15 10:18:22;;;;;;;;;10.40;9.00;;;;;29.03;33.15;98863.97;6236902;28;96426;-73
2023/06/15 10:21:30;;;;;;;;;11.00;11.00;;;;;28.97;33.25;98859.81;6248252;27;98376;-73
2023/06/15 10:24:34;;;;;;;;;9.50;8.50;;;;;28.62;33.41;98873.19;6249755;27;96641;-72
2023/06/15 10:27:39;;;;;;;;;10.80;10.00;;;;;28.46;33.31;98848.03;6234938;28;98558;-72
2023/06/15 10:30:49;;;;;;;;;11.80;11.00;;;;;28.36;34.07;98865.91;6218599;28;96982;-71
2023/06/15 10:34:00;;;;;;;;;9.00;8.00;;;;;28.51;34.91;98858.09;6237153;27;96314;-71
2023/06/15 10:37:10;;;;;;;;;7.75;7.75;;;;;28.75;33.84;98852.66;6241215;27;96247;-71
2023/06/15 10:40:19;;;;;;;;;10.00;9.00;;;;;28.42;32.46;98861.78;6238464;27;97518;-71
2023/06/15 10:43:27;;;;;;;;;9.00;9.00;;;;;28.26;33.92;98840.53;6211440;28;97162;-71
2023/06/15 10:46:34;;;;;;;;;10.00;10.00;;;;;28.21;34.00;98847.09;6240519;28;96261;-71
2023/06/15 10:49:47;;;;;;;;;11.80;10.80;;;;;28.47;35.53;98846.06;6227169;28;96287;-72
2023/06/15 10:52:51;;;;;;;;;9.00;8.20;;;;;29.03;34.50;98844.56;6226176;28;96365;-71
2023/06/15 10:55:56;;;;;;;;;10.00;10.00;;;;;29.39;34.14;98841.00;6239396;27;96456;-71
2023/06/15 10:59:04;;;;;;;;;12.40;10.40;;;;;29.77;33.37;98835.09;6238918;28;96266;-72
2023/06/15 11:02:52;;;;;;;;;10.60;10.00;;;;;30.11;32.75;98831.81;6239650;27;97320;-72
2023/06/15 11:06:03;;;;;;;;;12.00;11.00;;;;;29.85;32.39;98828.59;6224638;28;96802;-72
2023/06/15 11:09:08;;;;;;;;;12.00;10.00;;;;;30.09;31.39;98832.19;6228202;28;96707;-72
2023/06/15 11:12:32;;;;;;;;;10.25;9.25;;;;;30.34;31.71;98827.34;6238751;27;96354;-72
2023/06/15 11:15:38;;;;;;;;;12.00;12.00;;;;;30.55;31.24;98818.81;6228212;28;96939;-72
2023/06/15 11:18:56;;;;;;;;;10.00;10.00;;;;;31.02;31.61;98824.50;6218459;28;96509;-72
2023/06/15 11:22:01;;;;;;;;;10.00;10.00;;;;;31.39;29.82;98825.00;6239275;27;96290;-73
2023/06/15 11:25:08;;;;;;;;;8.20;7.00;;;;;31.65;29.76;98827.28;6239627;28;96371;-73
2023/06/15 11:28:12;;;;;;;;;9.80;8.20;;;;;31.54;28.98;98823.38;6238487;28;96637;-73
2023/06/15 11:31:35;;;;;;;;;10.00;9.40;;;;;31.42;28.21;98820.72;6232672;27;96628;-72
2023/06/15 11:34:40;;;;;;;;;12.60;10.00;;;;;31.17;29.63;98818.13;6228345;28;97197;-72
2023/06/15 11:37:45;;;;;;;;;9.00;9.00;;;;;30.96;28.88;98811.97;6236588;27;96981;-72
2023/06/15 11:40:48;;;;;;;;;11.00;10.00;;;;;30.77;29.33;98818.22;6237507;27;96526;-72
2023/06/15 11:43:52;;;;;;;;;10.40;9.00;;;;;30.94;30.47;98808.72;6237255;27;96303;-72
2023/06/15 11:46:59;;;;;;;;;9.00;9.00;;;;;31.27;30.49;98805.63;6216686;28;97237;-72
2023/06/15 11:50:03;;;;;;;;;11.00;10.00;;;;;31.40;29.36;98794.03;6228142;28;96314;-72
2023/06/15 11:53:07;;;;;;;;;8.00;8.00;;;;;31.66;30.65;98803.81;6237578;28;96268;-72
2023/06/15 11:56:12;;;;;;;;;12.00;10.00;;;;;31.71;29.30;98792.38;6246265;27;96375;-73
2023/06/15 11:59:18;;;;;;;;;9.25;9.00;;;;;31.47;27.63;98790.59;6237338;28;96254;-72
2023/06/15 12:02:23;;;;;;;;;10.00;9.00;;;;;30.74;28.79;98787.53;6247648;27;96390;-72
2023/06/15 12:05:28;;;;;;;;;9.00;8.20;;;;;30.57;30.28;98785.88;6238870;28;96596;-72
2023/06/15 12:08:32;;;;;;;;;11.00;10.00;;;;;31.02;29.42;98779.94;6218288;28;98689;-73
2023/06/15 12:11:37;;;;;;;;;10.60;10.00;;;;;31.37;28.77;98777.22;6219535;27;96845;-73
2023/06/15 12:14:43;;;;;;;;;11.00;9.00;;;;;31.44;27.20;98774.59;6233076;27;96203;-72
2023/06/15 12:17:48;;;;;;;;;11.20;10.80;;;;;31.59;26.81;98768.22;6230567;28;96261;-72
2023/06/15 12:20:51;;;;;;;;;9.60;9.60;;;;;31.40;26.57;98743.06;6212485;28;98445;-72
2023/06/15 12:23:55;;;;;;;;;8.00;8.00;;;;;31.45;26.89;98756.72;6223747;28;96395;-72
2023/06/15 12:27:01;;;;;;;;;8.00;8.00;;;;;31.37;27.01;98766.09;6216386;28;96678;-72
2023/06/15 12:30:10;;;;;;;;;8.00;7.00;;;;;31.35;27.48;98760.06;6231218;28;96207;-72
2023/06/15 12:33:28;;;;;;;;;10.20;8.80;;;;;31.53;27.46;98754.88;6231563;28;97039;-72
2023/06/15 12:36:32;;;;;;;;;10.00;9.00;;;;;31.78;26.91;98761.84;6233431;28;96586;-73
2023/06/15 12:39:37;;;;;;;;;9.00;9.00;;;;;32.13;27.17;98757.06;6226503;27;96264;-72
2023/06/15 12:42:40;;;;;;;;;8.50;8.00;;;;;32.20;26.13;98748.03;6233788;28;96236;-72
2023/06/15 12:45:44;;;;;;;;;8.00;7.75;;;;;32.19;26.21;98752.00;6243225;27;96593;-72
2023/06/15 12:48:49;;;;;;;;;9.60;8.40;;;;;32.17;25.19;98745.97;6242279;27;96240;-72
2023/06/15 12:51:52;;;;;;;;;9.80;8.80;;;;;31.86;25.12;98737.75;6256926;27;97092;-72
2023/06/15 12:54:58;;;;;;;;;9.00;8.00;;;;;31.69;25.49;98739.78;6237036;28;96466;-72
2023/06/15 12:58:02;;;;;;;;;9.40;9.00;;;;;31.54;26.05;98742.56;6236040;27;98374;-72
2023/06/15 13:01:05;;;;;;;;;10.00;10.00;;;;;31.63;26.48;98737.63;6237995;27;96833;-72
2023/06/15 13:04:10;;;;;;;;;9.20;8.00;;;;;31.78;26.40;98737.56;6256644;27;96426;-72
2023/06/15 13:07:14;;;;;;;;;9.60;9.00;;;;;31.87;26.23;98726.19;6237778;28;96278;-72
2023/06/15 13:10:18;;;;;;;;;9.50;8.50;;;;;32.05;26.13;98732.97;6241042;27;98403;-72
2023/06/15 13:13:22;;;;;;;;;8.60;7.60;;;;;32.10;25.72;98726.28;6240605;27;96415;-72
2023/06/15 13:16:25;;;;;;;;;10.00;9.00;;;;;32.11;25.61;98722.34;6208258;28;97205;-72
2023/06/15 13:19:31;;;;;;;;;9.40;9.00;;;;;31.87;25.84;98729.00;6233014;28;96404;-72
2023/06/15 13:22:35;;;;;;;;;9.00;8.60;;;;;31.57;26.39;98719.59;6233768;27;96658;-72
2023/06/15 13:25:39;;;;;;;;;12.40;12.00;;;;;31.37;26.51;98718.72;6236331;28;98435;-72
2023/06/15 13:28:42;;;;;;;;;11.60;9.00;;;;;31.07;26.28;98707.28;6216962;28;97111;-72
2023/06/15 13:31:45;;;;;;;;;11.50;11.00;;;;;31.03;26.94;98708.34;6238824;27;96275;-72
2023/06/15 13:34:50;;;;;;;;;12.00;11.00;;;;;30.91;26.49;98706.44;6254497;27;98353;-72
2023/06/15 13:37:54;;;;;;;;;11.50;10.75;;;;;30.93;26.80;98707.72;6234436;27;96267;-72
2023/06/15 13:40:59;;;;;;;;;12.00;10.00;;;;;31.13;26.67;98714.16;6224062;28;96749;-72
2023/06/15 13:44:02;;;;;;;;;13.20;12.00;;;;;31.20;25.15;98708.78;6232974;28;96385;-72
2023/06/15 13:47:06;;;;;;;;;10.00;8.80;;;;;31.25;26.49;98702.91;6250126;27;98988;-72
2023/06/15 13:50:15;;;;;;;;;11.60;11.00;;;;;31.12;25.30;98695.06;6243139;27;96275;-72
2023/06/15 13:53:19;;;;;;;;;11.50;10.25;;;;;30.88;25.07;98687.69;6226686;27;96411;-71
2023/06/15 13:56:24;;;;;;;;;12.00;10.00;;;;;30.71;25.82;98702.75;6228605;28;96849;-72
2023/06/15 13:59:28;;;;;;;;;11.40;10.80;;;;;30.59;26.35;98697.31;6234565;27;96975;-72
2023/06/15 14:02:32;;;;;;;;;11.00;11.00;;;;;30.44;25.52;98692.50;6235441;28;98408;-72
2023/06/15 14:05:36;;;;;;;;;9.00;8.80;;;;;30.48;26.79;98690.66;6235906;28;96378;-72
2023/06/15 14:08:40;;;;;;;;;10.20;8.00;;;;;30.50;25.71;98679.94;6239485;27;96850;-72
2023/06/15 14:11:43;;;;;;;;;13.00;11.50;;;;;30.64;25.80;98685.91;6240646;27;96637;-72
2023/06/15 14:14:47;;;;;;;;;13.60;13.00;;;;;30.83;24.61;98685.19;6225656;28;98360;-72